sensor_id;sensor_type;location;lat;lon;timestamp;pressure;altitude;pressure_sealevel;temperature;humidity
73870;BME280;64924;42.140;24.762;2024-01-30T00:01:13;101819.50;;;4.07;42.60
73870;BME280;64924;42.140;24.762;2024-01-30T00:03:38;101872.03;;;4.39;42.52
73870;BME280;64924;42.140;24.762;2024-01-30T00:06:04;101857.44;;;4.29;42.43
73870;BME280;64924;42.140;24.762;2024-01-30T00:08:30;101828.19;;;4.10;42.42
73870;BME280;64924;42.140;24.762;2024-01-30T00:10:55;101870.78;;;4.30;42.66
73870;BME280;64924;42.140;24.762;2024-01-30T00:13:21;101872.22;;;4.36;42.49
73870;BME280;64924;42.140;24.762;2024-01-30T00:15:46;101874.41;;;4.44;42.59
73870;BME280;64924;42.140;24.762;2024-01-30T00:18:12;101864.50;;;4.44;42.13
73870;BME280;64924;42.140;24.762;2024-01-30T00:20:37;101873.66;;;4.42;42.21
73870;BME280;64924;42.140;24.762;2024-01-30T00:23:03;101875.13;;;4.46;42.38
73870;BME280;64924;42.140;24.762;2024-01-30T00:25:29;101866.84;;;4.36;42.14
73870;BME280;64924;42.140;24.762;2024-01-30T00:27:54;101881.53;;;4.45;42.08
73870;BME280;64924;42.140;24.762;2024-01-30T00:30:20;101857.59;;;4.40;41.96
73870;BME280;64924;42.140;24.762;2024-01-30T00:32:46;101870.97;;;4.54;41.92
73870;BME280;64924;42.140;24.762;2024-01-30T00:35:11;101823.06;;;4.20;41.75
73870;BME280;64924;42.140;24.762;2024-01-30T00:37:37;101856.19;;;4.47;41.86
73870;BME280;64924;42.140;24.762;2024-01-30T00:40:03;101818.91;;;4.28;41.84
73870;BME280;64924;42.140;24.762;2024-01-30T00:42:29;101873.88;;;4.51;41.89
73870;BME280;64924;42.140;24.762;2024-01-30T00:44:54;101869.91;;;4.57;41.76
73870;BME280;64924;42.140;24.762;2024-01-30T00:47:20;101829.88;;;4.25;41.91
73870;BME280;64924;42.140;24.762;2024-01-30T00:49:46;101877.00;;;4.45;41.91
73870;BME280;64924;42.140;24.762;2024-01-30T00:52:11;101873.31;;;4.46;42.03
73870;BME280;64924;42.140;24.762;2024-01-30T00:54:37;101841.50;;;4.26;41.90
73870;BME280;64924;42.140;24.762;2024-01-30T00:57:03;101878.28;;;4.52;41.84
73870;BME280;64924;42.140;24.762;2024-01-30T00:59:28;101872.91;;;4.52;41.77
73870;BME280;64924;42.140;24.762;2024-01-30T01:01:54;101876.16;;;4.57;41.80
73870;BME280;64924;42.140;24.762;2024-01-30T01:04:19;101871.34;;;4.62;41.70
73870;BME280;64924;42.140;24.762;2024-01-30T01:06:47;101871.94;;;4.53;41.82
73870;BME280;64924;42.140;24.762;2024-01-30T01:09:12;101857.16;;;4.46;42.00
73870;BME280;64924;42.140;24.762;2024-01-30T01:11:38;101875.41;;;4.55;41.86
73870;BME280;64924;42.140;24.762;2024-01-30T01:14:04;101855.34;;;4.47;41.98
73870;BME280;64924;42.140;24.762;2024-01-30T01:16:29;101864.72;;;4.41;42.00
73870;BME280;64924;42.140;24.762;2024-01-30T01:18:55;101852.88;;;4.44;42.11
73870;BME280;64924;42.140;24.762;2024-01-30T01:21:21;101855.66;;;4.42;42.26
73870;BME280;64924;42.140;24.762;2024-01-30T01:23:46;101836.94;;;4.41;42.02
73870;BME280;64924;42.140;24.762;2024-01-30T01:26:11;101842.75;;;4.47;41.84
73870;BME280;64924;42.140;24.762;2024-01-30T01:28:40;101852.91;;;4.56;41.88
73870;BME280;64924;42.140;24.762;2024-01-30T01:31:06;101854.16;;;4.51;42.04
73870;BME280;64924;42.140;24.762;2024-01-30T01:33:32;101845.03;;;4.53;42.07
73870;BME280;64924;42.140;24.762;2024-01-30T01:35:59;101850.19;;;4.56;42.12
73870;BME280;64924;42.140;24.762;2024-01-30T01:38:25;101854.00;;;4.66;42.07
73870;BME280;64924;42.140;24.762;2024-01-30T01:40:50;101845.38;;;4.61;42.30
73870;BME280;64924;42.140;24.762;2024-01-30T01:43:16;101848.41;;;4.69;42.26
73870;BME280;64924;42.140;24.762;2024-01-30T01:45:42;101838.25;;;4.60;42.38
73870;BME280;64924;42.140;24.762;2024-01-30T01:48:08;101844.41;;;4.62;42.54
73870;BME280;64924;42.140;24.762;2024-01-30T01:50:35;101848.63;;;4.66;42.32
73870;BME280;64924;42.140;24.762;2024-01-30T01:53:01;101804.19;;;4.34;42.30
73870;BME280;64924;42.140;24.762;2024-01-30T01:55:29;101850.00;;;4.59;42.39
73870;BME280;64924;42.140;24.762;2024-01-30T01:57:55;101807.03;;;4.18;42.68
73870;BME280;64924;42.140;24.762;2024-01-30T02:00:21;101798.41;;;4.13;42.90
73870;BME280;64924;42.140;24.762;2024-01-30T02:02:47;101846.72;;;4.15;43.65
73870;BME280;64924;42.140;24.762;2024-01-30T02:05:13;101847.19;;;4.21;43.48
73870;BME280;64924;42.140;24.762;2024-01-30T02:07:38;101851.03;;;4.17;43.91
73870;BME280;64924;42.140;24.762;2024-01-30T02:10:04;101851.22;;;4.14;43.69
73870;BME280;64924;42.140;24.762;2024-01-30T02:12:30;101847.25;;;4.07;44.11
73870;BME280;64924;42.140;24.762;2024-01-30T02:14:55;101853.72;;;4.17;43.84
73870;BME280;64924;42.140;24.762;2024-01-30T02:17:21;101853.63;;;4.19;43.86
73870;BME280;64924;42.140;24.762;2024-01-30T02:19:48;101843.78;;;4.05;44.19
73870;BME280;64924;42.140;24.762;2024-01-30T02:22:14;101854.97;;;4.12;44.14
73870;BME280;64924;42.140;24.762;2024-01-30T02:24:40;101846.28;;;4.08;44.31
73870;BME280;64924;42.140;24.762;2024-01-30T02:27:05;101856.28;;;3.92;44.84
73870;BME280;64924;42.140;24.762;2024-01-30T02:29:31;101859.66;;;3.95;44.86
73870;BME280;64924;42.140;24.762;2024-01-30T02:31:56;101875.50;;;3.86;45.10
73870;BME280;64924;42.140;24.762;2024-01-30T02:34:22;101868.31;;;3.72;45.67
73870;BME280;64924;42.140;24.762;2024-01-30T02:36:47;101880.63;;;3.19;47.72
73870;BME280;64924;42.140;24.762;2024-01-30T02:39:13;101877.69;;;2.94;48.25
73870;BME280;64924;42.140;24.762;2024-01-30T02:41:38;101875.88;;;3.09;47.68
73870;BME280;64924;42.140;24.762;2024-01-30T02:44:04;101894.47;;;2.97;48.68
73870;BME280;64924;42.140;24.762;2024-01-30T02:46:29;101880.53;;;2.77;48.81
73870;BME280;64924;42.140;24.762;2024-01-30T02:48:55;101878.06;;;2.88;48.70
73870;BME280;64924;42.140;24.762;2024-01-30T02:51:21;101872.25;;;2.95;48.41
73870;BME280;64924;42.140;24.762;2024-01-30T02:53:46;101889.59;;;3.04;48.34
73870;BME280;64924;42.140;24.762;2024-01-30T02:56:12;101892.84;;;2.95;48.49
73870;BME280;64924;42.140;24.762;2024-01-30T02:58:39;101887.59;;;3.08;48.08
73870;BME280;64924;42.140;24.762;2024-01-30T03:01:06;101878.66;;;3.07;48.18
73870;BME280;64924;42.140;24.762;2024-01-30T03:03:32;101887.53;;;3.23;47.78
73870;BME280;64924;42.140;24.762;2024-01-30T03:05:57;101886.97;;;3.32;47.29
73870;BME280;64924;42.140;24.762;2024-01-30T03:08:23;101880.63;;;3.33;47.20
73870;BME280;64924;42.140;24.762;2024-01-30T03:10:49;101842.25;;;3.17;47.10
73870;BME280;64924;42.140;24.762;2024-01-30T03:13:14;101893.50;;;3.57;46.74
73870;BME280;64924;42.140;24.762;2024-01-30T03:15:40;101841.38;;;3.45;46.41
73870;BME280;64924;42.140;24.762;2024-01-30T03:18:05;101874.38;;;3.76;46.15
73870;BME280;64924;42.140;24.762;2024-01-30T03:20:31;101888.28;;;3.82;46.09
73870;BME280;64924;42.140;24.762;2024-01-30T03:22:57;101865.91;;;3.82;45.90
73870;BME280;64924;42.140;24.762;2024-01-30T03:25:24;101876.66;;;3.96;45.78
73870;BME280;64924;42.140;24.762;2024-01-30T03:27:50;101859.47;;;3.84;45.78
73870;BME280;64924;42.140;24.762;2024-01-30T03:30:15;101864.91;;;3.70;46.16
73870;BME280;64924;42.140;24.762;2024-01-30T03:32:41;101872.19;;;3.68;46.26
73870;BME280;64924;42.140;24.762;2024-01-30T03:35:06;101860.47;;;3.55;46.56
73870;BME280;64924;42.140;24.762;2024-01-30T03:37:32;101871.22;;;3.55;46.73
73870;BME280;64924;42.140;24.762;2024-01-30T03:39:57;101790.63;;;3.12;46.78
73870;BME280;64924;42.140;24.762;2024-01-30T03:42:23;101868.31;;;3.72;46.25
73870;BME280;64924;42.140;24.762;2024-01-30T03:44:49;101869.47;;;3.82;45.93
73870;BME280;64924;42.140;24.762;2024-01-30T03:47:17;101871.38;;;3.94;45.82
73870;BME280;64924;42.140;24.762;2024-01-30T03:49:42;101871.94;;;3.99;45.53
73870;BME280;64924;42.140;24.762;2024-01-30T03:52:08;101877.13;;;4.02;45.77
73870;BME280;64924;42.140;24.762;2024-01-30T03:54:33;101869.72;;;4.06;45.57
73870;BME280;64924;42.140;24.762;2024-01-30T03:56:59;101860.22;;;4.00;45.86
73870;BME280;64924;42.140;24.762;2024-01-30T03:59:24;101870.78;;;4.03;45.74
73870;BME280;64924;42.140;24.762;2024-01-30T04:01:50;101866.38;;;4.02;45.94
73870;BME280;64924;42.140;24.762;2024-01-30T04:04:17;101814.00;;;3.67;45.97
73870;BME280;64924;42.140;24.762;2024-01-30T04:06:43;101854.66;;;3.89;45.92
73870;BME280;64924;42.140;24.762;2024-01-30T04:09:09;101876.47;;;3.85;46.31
73870;BME280;64924;42.140;24.762;2024-01-30T04:11:34;101839.16;;;3.66;46.28
73870;BME280;64924;42.140;24.762;2024-01-30T04:14:00;101875.22;;;3.90;46.41
73870;BME280;64924;42.140;24.762;2024-01-30T04:16:25;101876.00;;;3.78;46.68
73870;BME280;64924;42.140;24.762;2024-01-30T04:18:51;101866.63;;;3.57;47.01
73870;BME280;64924;42.140;24.762;2024-01-30T04:21:17;101884.00;;;3.51;47.38
73870;BME280;64924;42.140;24.762;2024-01-30T04:23:42;101877.16;;;3.46;47.54
73870;BME280;64924;42.140;24.762;2024-01-30T04:26:08;101842.06;;;3.20;47.39
73870;BME280;64924;42.140;24.762;2024-01-30T04:28:33;101880.72;;;3.32;47.55
73870;BME280;64924;42.140;24.762;2024-01-30T04:30:59;101880.63;;;3.33;47.42
73870;BME280;64924;42.140;24.762;2024-01-30T04:33:24;101870.81;;;3.18;47.53
73870;BME280;64924;42.140;24.762;2024-01-30T04:35:50;101897.41;;;3.23;47.83
73870;BME280;64924;42.140;24.762;2024-01-30T04:38:15;101890.78;;;3.14;48.04
73870;BME280;64924;42.140;24.762;2024-01-30T04:40:41;101905.75;;;3.18;47.70
73870;BME280;64924;42.140;24.762;2024-01-30T04:43:06;101897.59;;;3.20;47.81
73870;BME280;64924;42.140;24.762;2024-01-30T04:45:32;101890.78;;;3.14;48.04
73870;BME280;64924;42.140;24.762;2024-01-30T04:47:57;101894.03;;;3.19;47.74
73870;BME280;64924;42.140;24.762;2024-01-30T04:50:23;101909.41;;;3.31;47.60
73870;BME280;64924;42.140;24.762;2024-01-30T04:52:49;101920.25;;;3.44;47.42
73870;BME280;64924;42.140;24.762;2024-01-30T04:55:14;101909.50;;;3.44;47.31
73870;BME280;64924;42.140;24.762;2024-01-30T04:57:40;101904.63;;;3.51;47.44
73870;BME280;64924;42.140;24.762;2024-01-30T05:00:06;101912.97;;;3.60;47.17
73870;BME280;64924;42.140;24.762;2024-01-30T05:02:32;101916.53;;;3.61;47.06
73870;BME280;64924;42.140;24.762;2024-01-30T05:04:57;101867.94;;;3.21;47.23
73870;BME280;64924;42.140;24.762;2024-01-30T05:07:24;101900.66;;;3.42;47.18
73870;BME280;64924;42.140;24.762;2024-01-30T05:09:50;101921.69;;;3.50;47.26
73870;BME280;64924;42.140;24.762;2024-01-30T05:12:16;101916.22;;;3.51;47.08
73870;BME280;64924;42.140;24.762;2024-01-30T05:14:41;101912.41;;;3.55;47.05
73870;BME280;64924;42.140;24.762;2024-01-30T05:17:07;101919.50;;;3.71;46.44
73870;BME280;64924;42.140;24.762;2024-01-30T05:19:35;101909.78;;;3.82;46.15
73870;BME280;64924;42.140;24.762;2024-01-30T05:22:00;101913.72;;;3.91;45.99
73870;BME280;64924;42.140;24.762;2024-01-30T05:24:26;101918.53;;;4.00;45.82
73870;BME280;64924;42.140;24.762;2024-01-30T05:26:51;101901.34;;;4.02;45.68
73870;BME280;64924;42.140;24.762;2024-01-30T05:29:17;101906.50;;;4.06;45.63
73870;BME280;64924;42.140;24.762;2024-01-30T05:31:42;101904.59;;;4.08;45.66
73870;BME280;64924;42.140;24.762;2024-01-30T05:34:08;101902.38;;;4.00;45.65
73870;BME280;64924;42.140;24.762;2024-01-30T05:36:35;101906.91;;;3.99;45.87
73870;BME280;64924;42.140;24.762;2024-01-30T05:39:00;101902.69;;;3.95;45.99
73870;BME280;64924;42.140;24.762;2024-01-30T05:41:26;101869.94;;;3.75;45.88
73870;BME280;64924;42.140;24.762;2024-01-30T05:43:51;101898.84;;;3.99;45.86
73870;BME280;64924;42.140;24.762;2024-01-30T05:46:17;101867.34;;;3.73;45.96
73870;BME280;64924;42.140;24.762;2024-01-30T05:48:42;101910.34;;;4.01;45.88
73870;BME280;64924;42.140;24.762;2024-01-30T05:51:08;101900.56;;;4.00;45.96
73870;BME280;64924;42.140;24.762;2024-01-30T05:53:34;101859.28;;;3.73;46.04
73870;BME280;64924;42.140;24.762;2024-01-30T05:56:03;101912.34;;;4.12;45.96
73870;BME280;64924;42.140;24.762;2024-01-30T05:58:29;101920.50;;;4.11;45.75
73870;BME280;64924;42.140;24.762;2024-01-30T06:00:56;101908.00;;;4.10;45.73
73870;BME280;64924;42.140;24.762;2024-01-30T06:03:22;101872.53;;;3.90;45.46
73870;BME280;64924;42.140;24.762;2024-01-30T06:05:48;101886.06;;;4.03;45.63
73870;BME280;64924;42.140;24.762;2024-01-30T06:08:13;101902.44;;;4.13;45.44
73870;BME280;64924;42.140;24.762;2024-01-30T06:10:39;101899.94;;;4.10;45.58
73870;BME280;64924;42.140;24.762;2024-01-30T06:13:04;101856.97;;;3.81;45.60
73870;BME280;64924;42.140;24.762;2024-01-30T06:15:30;101912.34;;;4.12;45.62
73870;BME280;64924;42.140;24.762;2024-01-30T06:17:55;101922.13;;;4.27;45.35
73870;BME280;64924;42.140;24.762;2024-01-30T06:20:21;101911.56;;;4.24;45.41
73870;BME280;64924;42.140;24.762;2024-01-30T06:22:46;101912.88;;;4.31;45.06
73870;BME280;64924;42.140;24.762;2024-01-30T06:25:12;101920.16;;;4.44;45.09
73870;BME280;64924;42.140;24.762;2024-01-30T06:27:38;101913.28;;;4.25;45.55
73870;BME280;64924;42.140;24.762;2024-01-30T06:30:04;101916.53;;;4.30;45.51
73870;BME280;64924;42.140;24.762;2024-01-30T06:32:30;101876.56;;;3.97;45.47
73870;BME280;64924;42.140;24.762;2024-01-30T06:35:00;101923.53;;;4.33;45.26
73870;BME280;64924;42.140;24.762;2024-01-30T06:37:25;101921.16;;;4.28;45.43
73870;BME280;64924;42.140;24.762;2024-01-30T06:39:51;101916.66;;;4.15;45.76
73870;BME280;64924;42.140;24.762;2024-01-30T06:42:18;101926.25;;;4.19;45.98
73870;BME280;64924;42.140;24.762;2024-01-30T06:44:43;101922.03;;;4.15;46.43
73870;BME280;64924;42.140;24.762;2024-01-30T06:47:09;101921.59;;;4.08;46.41
73870;BME280;64924;42.140;24.762;2024-01-30T06:49:34;101920.91;;;4.05;46.71
73870;BME280;64924;42.140;24.762;2024-01-30T06:52:00;101927.16;;;4.05;46.88
73870;BME280;64924;42.140;24.762;2024-01-30T06:54:25;101927.94;;;4.07;46.77
73870;BME280;64924;42.140;24.762;2024-01-30T06:56:51;101878.38;;;3.97;46.63
73870;BME280;64924;42.140;24.762;2024-01-30T06:59:16;101925.38;;;4.32;46.56
73870;BME280;64924;42.140;24.762;2024-01-30T07:01:42;101928.88;;;4.47;46.12
73870;BME280;64924;42.140;24.762;2024-01-30T07:04:07;101929.63;;;4.49;45.75
73870;BME280;64924;42.140;24.762;2024-01-30T07:06:33;101936.03;;;4.61;45.34
73870;BME280;64924;42.140;24.762;2024-01-30T07:08:58;101937.88;;;4.60;45.59
73870;BME280;64924;42.140;24.762;2024-01-30T07:11:24;101928.56;;;4.52;45.89
73870;BME280;64924;42.140;24.762;2024-01-30T07:13:54;101925.06;;;4.37;46.18
73870;BME280;64924;42.140;24.762;2024-01-30T07:16:20;101886.41;;;4.11;46.22
73870;BME280;64924;42.140;24.762;2024-01-30T07:18:45;101932.78;;;4.56;45.71
73870;BME280;64924;42.140;24.762;2024-01-30T07:21:11;101911.00;;;4.46;45.66
73870;BME280;64924;42.140;24.762;2024-01-30T07:23:37;101914.69;;;4.45;45.68
73870;BME280;64924;42.140;24.762;2024-01-30T07:26:05;101928.47;;;4.53;45.60
73870;BME280;64924;42.140;24.762;2024-01-30T07:28:32;101928.28;;;4.56;45.23
73870;BME280;64924;42.140;24.762;2024-01-30T07:30:57;101930.84;;;4.58;44.96
73870;BME280;64924;42.140;24.762;2024-01-30T07:33:23;101885.47;;;4.39;45.04
73870;BME280;64924;42.140;24.762;2024-01-30T07:35:49;101942.44;;;4.73;44.66
73870;BME280;64924;42.140;24.762;2024-01-30T07:38:14;101944.53;;;4.82;44.39
73870;BME280;64924;42.140;24.762;2024-01-30T07:40:40;101931.38;;;4.77;44.16
73870;BME280;64924;42.140;24.762;2024-01-30T07:43:06;101943.88;;;4.78;44.42
73870;BME280;64924;42.140;24.762;2024-01-30T07:45:32;101930.50;;;4.77;44.16
73870;BME280;64924;42.140;24.762;2024-01-30T07:48:00;101918.31;;;4.71;43.98
73870;BME280;64924;42.140;24.762;2024-01-30T07:50:26;101948.34;;;5.04;43.38
73870;BME280;64924;42.140;24.762;2024-01-30T07:52:52;101939.31;;;5.06;43.34
73870;BME280;64924;42.140;24.762;2024-01-30T07:55:23;101905.13;;;4.93;43.03
73870;BME280;64924;42.140;24.762;2024-01-30T07:57:56;101923.34;;;5.02;42.80
73870;BME280;64924;42.140;24.762;2024-01-30T08:00:22;101926.03;;;5.02;42.77
73870;BME280;64924;42.140;24.762;2024-01-30T08:02:48;101938.91;;;5.12;42.87
73870;BME280;64924;42.140;24.762;2024-01-30T08:05:14;101917.66;;;5.07;42.62
73870;BME280;64924;42.140;24.762;2024-01-30T08:07:43;101934.56;;;5.22;42.40
73870;BME280;64924;42.140;24.762;2024-01-30T08:10:11;101944.94;;;5.28;42.44
73870;BME280;64924;42.140;24.762;2024-01-30T08:12:36;101931.47;;;5.28;42.11
73870;BME280;64924;42.140;24.762;2024-01-30T08:15:03;101930.81;;;5.24;42.11
73870;BME280;64924;42.140;24.762;2024-01-30T08:17:28;101935.13;;;5.27;41.94
73870;BME280;64924;42.140;24.762;2024-01-30T08:19:54;101929.09;;;5.36;42.00
73870;BME280;64924;42.140;24.762;2024-01-30T08:22:20;101931.03;;;5.21;42.08
73870;BME280;64924;42.140;24.762;2024-01-30T08:24:45;101925.88;;;5.18;42.22
73870;BME280;64924;42.140;24.762;2024-01-30T08:27:11;101876.34;;;4.81;42.25
73870;BME280;64924;42.140;24.762;2024-01-30T08:29:37;101930.59;;;5.27;42.13
73870;BME280;64924;42.140;24.762;2024-01-30T08:32:05;101922.75;;;5.50;41.41
73870;BME280;64924;42.140;24.762;2024-01-30T08:34:30;101919.41;;;5.59;41.04
73870;BME280;64924;42.140;24.762;2024-01-30T08:36:56;101924.56;;;5.75;40.57
73870;BME280;64924;42.140;24.762;2024-01-30T08:39:21;101930.19;;;5.71;40.45
73870;BME280;64924;42.140;24.762;2024-01-30T08:41:47;101924.16;;;5.68;40.40
73870;BME280;64924;42.140;24.762;2024-01-30T08:44:12;101932.66;;;5.75;40.14
73870;BME280;64924;42.140;24.762;2024-01-30T08:46:38;101936.00;;;5.65;40.30
73870;BME280;64924;42.140;24.762;2024-01-30T08:49:03;101931.03;;;5.59;40.44
73870;BME280;64924;42.140;24.762;2024-01-30T08:51:33;101927.28;;;5.62;39.96
73870;BME280;64924;42.140;24.762;2024-01-30T08:53:59;101930.94;;;5.74;39.65
73870;BME280;64924;42.140;24.762;2024-01-30T08:56:25;101929.66;;;5.79;39.36
73870;BME280;64924;42.140;24.762;2024-01-30T08:58:51;101941.63;;;5.88;39.33
73870;BME280;64924;42.140;24.762;2024-01-30T09:01:16;101931.03;;;5.97;38.95
73870;BME280;64924;42.140;24.762;2024-01-30T09:03:42;101924.34;;;6.03;38.58
73870;BME280;64924;42.140;24.762;2024-01-30T09:06:11;101927.78;;;6.05;38.52
73870;BME280;64924;42.140;24.762;2024-01-30T09:08:37;101912.34;;;6.07;38.36
73870;BME280;64924;42.140;24.762;2024-01-30T09:11:10;101923.13;;;6.20;38.25
73870;BME280;64924;42.140;24.762;2024-01-30T09:13:36;101918.72;;;6.19;37.98
73870;BME280;64924;42.140;24.762;2024-01-30T09:16:03;101905.75;;;6.24;37.82
73870;BME280;64924;42.140;24.762;2024-01-30T09:18:29;101913.13;;;6.33;37.68
73870;BME280;64924;42.140;24.762;2024-01-30T09:20:55;101912.06;;;6.35;37.79
73870;BME280;64924;42.140;24.762;2024-01-30T09:23:21;101907.03;;;6.31;37.84
73870;BME280;64924;42.140;24.762;2024-01-30T09:25:47;101888.25;;;6.29;37.71
73870;BME280;64924;42.140;24.762;2024-01-30T09:28:13;101901.09;;;6.50;37.57
73870;BME280;64924;42.140;24.762;2024-01-30T09:30:39;101886.41;;;6.30;37.59
73870;BME280;64924;42.140;24.762;2024-01-30T09:33:05;101882.47;;;6.34;37.54
73870;BME280;64924;42.140;24.762;2024-01-30T09:35:31;101888.84;;;6.33;37.69
73870;BME280;64924;42.140;24.762;2024-01-30T09:37:57;101896.44;;;6.52;37.53
73870;BME280;64924;42.140;24.762;2024-01-30T09:40:24;101894.34;;;6.68;37.31
73870;BME280;64924;42.140;24.762;2024-01-30T09:42:53;101873.59;;;6.80;37.02
73870;BME280;64924;42.140;24.762;2024-01-30T09:45:20;101884.75;;;6.75;36.72
73870;BME280;64924;42.140;24.762;2024-01-30T09:47:46;101883.88;;;6.63;36.99
73870;BME280;64924;42.140;24.762;2024-01-30T09:50:13;101872.25;;;6.50;37.09
73870;BME280;64924;42.140;24.762;2024-01-30T09:52:39;101871.97;;;6.42;37.35
73870;BME280;64924;42.140;24.762;2024-01-30T09:55:06;101880.69;;;6.46;37.55
73870;BME280;64924;42.140;24.762;2024-01-30T09:57:32;101868.69;;;6.50;37.58
73870;BME280;64924;42.140;24.762;2024-01-30T09:59:58;101878.13;;;6.68;37.19
73870;BME280;64924;42.140;24.762;2024-01-30T10:02:23;101857.09;;;6.60;36.96
73870;BME280;64924;42.140;24.762;2024-01-30T10:04:50;101879.53;;;6.85;36.77
73870;BME280;64924;42.140;24.762;2024-01-30T10:07:19;101870.03;;;6.79;36.88
73870;BME280;64924;42.140;24.762;2024-01-30T10:09:45;101872.41;;;6.84;36.83
73870;BME280;64924;42.140;24.762;2024-01-30T10:12:12;101876.88;;;6.96;36.70
73870;BME280;64924;42.140;24.762;2024-01-30T10:14:39;101830.16;;;6.83;36.70
73870;BME280;64924;42.140;24.762;2024-01-30T10:17:05;101864.81;;;6.89;36.53
73870;BME280;64924;42.140;24.762;2024-01-30T10:19:31;101871.66;;;6.82;36.27
73870;BME280;64924;42.140;24.762;2024-01-30T10:21:57;101856.13;;;6.72;36.55
73870;BME280;64924;42.140;24.762;2024-01-30T10:24:26;101864.41;;;6.82;36.61
73870;BME280;64924;42.140;24.762;2024-01-30T10:26:52;101860.97;;;6.80;36.65
73870;BME280;64924;42.140;24.762;2024-01-30T10:29:18;101858.13;;;6.82;36.61
73870;BME280;64924;42.140;24.762;2024-01-30T10:31:44;101866.06;;;6.96;36.55
73870;BME280;64924;42.140;24.762;2024-01-30T10:34:09;101864.97;;;6.98;36.52
73870;BME280;64924;42.140;24.762;2024-01-30T10:36:40;101857.09;;;6.95;36.47
73870;BME280;64924;42.140;24.762;2024-01-30T10:39:08;101856.50;;;7.03;36.51
73870;BME280;64924;42.140;24.762;2024-01-30T10:41:42;101846.34;;;7.29;35.88
73870;BME280;64924;42.140;24.762;2024-01-30T10:44:09;101867.69;;;7.21;35.74
73870;BME280;64924;42.140;24.762;2024-01-30T10:46:37;101862.91;;;7.24;35.71
73870;BME280;64924;42.140;24.762;2024-01-30T10:49:04;101812.50;;;7.12;35.33
73870;BME280;64924;42.140;24.762;2024-01-30T10:51:31;101852.72;;;7.50;34.86
73870;BME280;64924;42.140;24.762;2024-01-30T10:53:57;101844.75;;;7.60;35.21
73870;BME280;64924;42.140;24.762;2024-01-30T10:56:23;101828.88;;;7.55;34.85
73870;BME280;64924;42.140;24.762;2024-01-30T10:58:53;101829.88;;;7.77;34.51
73870;BME280;64924;42.140;24.762;2024-01-30T11:01:23;101837.34;;;7.95;34.39
73870;BME280;64924;42.140;24.762;2024-01-30T11:03:53;101803.03;;;7.96;34.35
73870;BME280;64924;42.140;24.762;2024-01-30T11:06:22;101842.44;;;8.32;33.83
73870;BME280;64924;42.140;24.762;2024-01-30T11:09:04;101830.53;;;8.55;33.34
73870;BME280;64924;42.140;24.762;2024-01-30T11:11:57;101828.13;;;8.73;32.76
73870;BME280;64924;42.140;24.762;2024-01-30T11:14:28;101824.91;;;8.79;32.70
73870;BME280;64924;42.140;24.762;2024-01-30T11:16:58;101823.56;;;8.94;32.25
73870;BME280;64924;42.140;24.762;2024-01-30T11:19:30;101829.94;;;9.04;31.87
73870;BME280;64924;42.140;24.762;2024-01-30T11:21:56;101817.81;;;9.09;31.97
73870;BME280;64924;42.140;24.762;2024-01-30T11:24:24;101826.16;;;9.17;31.76
73870;BME280;64924;42.140;24.762;2024-01-30T11:26:56;101815.13;;;9.39;31.97
73870;BME280;64924;42.140;24.762;2024-01-30T11:29:27;101807.94;;;9.28;31.61
73870;BME280;64924;42.140;24.762;2024-01-30T11:31:56;101800.09;;;9.25;31.92
73870;BME280;64924;42.140;24.762;2024-01-30T11:34:22;101804.59;;;9.15;31.95
73870;BME280;64924;42.140;24.762;2024-01-30T11:36:56;101798.50;;;9.02;32.21
73870;BME280;64924;42.140;24.762;2024-01-30T11:39:25;101793.19;;;8.91;32.07
73870;BME280;64924;42.140;24.762;2024-01-30T11:41:52;101791.03;;;8.94;31.76
73870;BME280;64924;42.140;24.762;2024-01-30T11:44:21;101778.09;;;8.77;32.36
73870;BME280;64924;42.140;24.762;2024-01-30T11:46:51;101774.06;;;8.71;32.25
73870;BME280;64924;42.140;24.762;2024-01-30T11:49:17;101778.78;;;8.37;31.87
73870;BME280;64924;42.140;24.762;2024-01-30T11:51:45;101779.16;;;8.44;32.16
73870;BME280;64924;42.140;24.762;2024-01-30T11:54:11;101782.97;;;8.42;32.12
73870;BME280;64924;42.140;24.762;2024-01-30T11:56:37;101779.41;;;8.30;31.92
73870;BME280;64924;42.140;24.762;2024-01-30T11:59:04;101724.09;;;8.12;32.23
73870;BME280;64924;42.140;24.762;2024-01-30T12:01:30;101759.63;;;8.18;32.13
73870;BME280;64924;42.140;24.762;2024-01-30T12:03:56;101761.09;;;8.22;31.93
73870;BME280;64924;42.140;24.762;2024-01-30T12:06:23;101762.16;;;7.99;32.41
73870;BME280;64924;42.140;24.762;2024-01-30T12:08:59;101711.25;;;7.93;32.48
73870;BME280;64924;42.140;24.762;2024-01-30T12:11:26;101747.53;;;8.22;32.49
73870;BME280;64924;42.140;24.762;2024-01-30T12:13:52;101748.81;;;8.50;32.06
73870;BME280;64924;42.140;24.762;2024-01-30T12:16:19;101745.84;;;8.53;31.94
73870;BME280;64924;42.140;24.762;2024-01-30T12:18:45;101738.16;;;8.37;31.94
73870;BME280;64924;42.140;24.762;2024-01-30T12:21:10;101734.09;;;8.32;31.90
73870;BME280;64924;42.140;24.762;2024-01-30T12:23:36;101724.84;;;8.14;32.31
73870;BME280;64924;42.140;24.762;2024-01-30T12:26:03;101679.50;;;7.63;32.68
73870;BME280;64924;42.140;24.762;2024-01-30T12:28:29;101706.31;;;7.44;33.05
73870;BME280;64924;42.140;24.762;2024-01-30T12:31:02;101710.50;;;7.59;33.01
73870;BME280;64924;42.140;24.762;2024-01-30T12:33:28;101716.03;;;7.57;33.43
73870;BME280;64924;42.140;24.762;2024-01-30T12:35:54;101720.22;;;7.50;33.34
73870;BME280;64924;42.140;24.762;2024-01-30T12:38:20;101711.59;;;7.45;35.41
73870;BME280;64924;42.140;24.762;2024-01-30T12:40:46;101720.56;;;7.68;33.38
73870;BME280;64924;42.140;24.762;2024-01-30T12:43:15;101718.41;;;7.83;33.55
73870;BME280;64924;42.140;24.762;2024-01-30T12:45:41;101714.84;;;7.82;33.13